createdAt,value
2022-09-30T00:00:29.779Z,7.28
2022-09-30T00:06:09.297Z,8.80
2022-09-30T00:11:33.949Z,6.93
2022-09-30T00:16:54.805Z,6.93
2022-09-30T00:22:16.114Z,7.03
2022-09-30T00:27:38.737Z,9.00
2022-09-30T00:32:59.749Z,7.13
2022-09-30T00:38:20.624Z,6.05
2022-09-30T00:43:45.602Z,7.40
2022-09-30T00:49:14.972Z,5.65
2022-09-30T00:54:36.234Z,6.93
2022-09-30T00:59:57.507Z,5.85
2022-09-30T01:05:18.333Z,5.65
2022-09-30T01:10:39.084Z,5.55
2022-09-30T01:16:06.913Z,6.55
2022-09-30T01:21:44.349Z,7.78
2022-09-30T01:27:30.583Z,7.15
2022-09-30T01:33:10.530Z,5.85
2022-09-30T01:38:48.629Z,5.75
2022-09-30T01:44:11.345Z,7.78
2022-09-30T01:49:49.455Z,8.05
2022-09-30T01:55:28.404Z,7.50
2022-09-30T02:00:53.705Z,9.05
2022-09-30T02:06:20.860Z,9.43
2022-09-30T02:11:42.539Z,8.43
2022-09-30T02:17:24.046Z,10.38
2022-09-30T02:23:00.742Z,9.35
2022-09-30T02:28:27.525Z,12.73
2022-09-30T02:33:55.147Z,9.88
2022-09-30T02:39:26.723Z,15.82
2022-09-30T02:44:52.299Z,14.93
2022-09-30T02:50:39.339Z,8.02
2022-09-30T02:56:14.704Z,12.35
2022-09-30T03:01:35.676Z,16.63
2022-09-30T03:06:56.580Z,13.32
2022-09-30T03:12:24.234Z,10.88
2022-09-30T03:18:10.696Z,13.82
2022-09-30T03:23:40.484Z,12.38
2022-09-30T03:29:23.134Z,12.85
2022-09-30T03:34:47.146Z,12.90
2022-09-30T03:40:30.598Z,15.40
2022-09-30T03:46:01.639Z,12.60
2022-09-30T03:51:25.111Z,14.88
2022-09-30T03:56:45.876Z,19.73
2022-09-30T04:02:10.603Z,13.38
2022-09-30T04:07:31.370Z,12.80
2022-09-30T04:12:54.855Z,12.70
2022-09-30T04:18:15.517Z,12.63
2022-09-30T04:23:37.518Z,13.63
2022-09-30T04:28:58.877Z,13.70
2022-09-30T04:34:19.530Z,12.07
2022-09-30T04:39:40.947Z,12.38
2022-09-30T04:45:02.722Z,14.15
2022-09-30T04:50:24.029Z,13.75
2022-09-30T04:55:45.683Z,17.60
2022-09-30T05:01:08.776Z,11.52
2022-09-30T05:06:29.461Z,12.82
2022-09-30T05:11:50.157Z,12.65
2022-09-30T05:17:10.944Z,12.02
2022-09-30T05:22:31.560Z,12.57
2022-09-30T05:27:52.222Z,17.67
2022-09-30T05:33:14.270Z,12.60
2022-09-30T05:38:35.597Z,12.75
2022-09-30T05:44:01.167Z,13.10
2022-09-30T05:49:22.293Z,15.45
2022-09-30T05:54:44.509Z,14.38
2022-09-30T06:00:06.642Z,13.52
2022-09-30T06:05:31.979Z,14.30
2022-09-30T06:10:52.928Z,15.35
2022-09-30T06:16:14.071Z,15.00
2022-09-30T06:21:35.052Z,14.25
2022-09-30T06:26:55.923Z,13.07
2022-09-30T06:32:17.619Z,17.17
2022-09-30T06:37:38.839Z,16.10
2022-09-30T06:43:00.567Z,16.38
2022-09-30T06:48:35.074Z,18.63
2022-09-30T06:54:00.185Z,16.67
2022-09-30T06:59:21.436Z,16.40
2022-09-30T07:04:42.802Z,16.85
2022-09-30T07:10:04.667Z,12.13
2022-09-30T07:15:25.664Z,15.63
2022-09-30T07:20:54.195Z,11.82
2022-09-30T07:26:20.807Z,17.70
2022-09-30T07:31:41.396Z,19.75
2022-09-30T07:37:04.275Z,15.02
2022-09-30T07:42:26.798Z,9.75
2022-09-30T07:47:53.267Z,13.35
2022-09-30T07:53:14.738Z,11.13
2022-09-30T07:58:36.167Z,13.35
2022-09-30T08:04:02.134Z,24.27
2022-09-30T08:09:25.095Z,22.73
2022-09-30T08:14:46.196Z,14.85
2022-09-30T08:20:12.981Z,16.88
2022-09-30T08:25:34.926Z,16.63
2022-09-30T08:30:55.646Z,17.02
2022-09-30T08:36:19.078Z,16.30
2022-09-30T08:42:25.168Z,12.38
2022-09-30T08:48:13.856Z,15.85
2022-09-30T08:53:46.943Z,12.70
2022-09-30T08:59:21.295Z,14.07
2022-09-30T09:04:42.663Z,13.80
2022-09-30T09:10:20.906Z,11.90
2022-09-30T09:16:08.085Z,10.32
2022-09-30T09:21:54.645Z,13.77
2022-09-30T09:27:38.614Z,10.13
2022-09-30T09:33:16.114Z,15.45
2022-09-30T09:38:46.201Z,14.45
2022-09-30T09:44:26.934Z,18.92
2022-09-30T09:49:57.679Z,14.32
2022-09-30T09:55:22.365Z,15.23
2022-09-30T10:00:46.600Z,13.48
2022-09-30T10:06:10.316Z,15.88
2022-09-30T10:11:31.293Z,14.52
2022-09-30T10:17:00.147Z,8.32
2022-09-30T10:22:28.303Z,6.20
2022-09-30T10:27:53.256Z,8.75
2022-09-30T10:33:20.633Z,12.45
2022-09-30T10:39:07.350Z,7.10
2022-09-30T10:44:29.773Z,7.63
2022-09-30T10:50:15.457Z,5.93
2022-09-30T10:55:43.238Z,11.27
2022-09-30T11:01:32.859Z,5.82
2022-09-30T11:07:04.303Z,6.10
2022-09-30T11:12:47.485Z,5.32
2022-09-30T11:18:21.217Z,4.20
2022-09-30T11:23:52.256Z,3.53
2022-09-30T11:29:35.826Z,6.50
2022-09-30T11:35:11.958Z,4.25
2022-09-30T11:41:07.405Z,5.55
2022-09-30T11:46:46.895Z,3.90
2022-09-30T11:52:18.486Z,2.93
2022-09-30T11:58:08.422Z,3.22
2022-09-30T12:03:50.746Z,2.30
2022-09-30T12:09:32.515Z,4.90
2022-09-30T12:15:07.598Z,2.38
2022-09-30T12:20:35.181Z,1.77
2022-09-30T12:26:00.170Z,2.63
2022-09-30T12:31:30.722Z,3.88
2022-09-30T12:37:11.260Z,3.20
2022-09-30T12:43:03.367Z,5.03
2022-09-30T12:48:34.404Z,2.22
2022-09-30T12:54:32.054Z,2.42
2022-09-30T12:59:57.319Z,2.42
2022-09-30T13:05:27.097Z,3.28
2022-09-30T13:10:57.750Z,4.53
2022-09-30T13:16:57.055Z,4.05
2022-09-30T13:22:21.087Z,4.05
2022-09-30T13:27:43.361Z,3.65
2022-09-30T13:33:04.551Z,3.97
2022-09-30T13:38:40.221Z,5.65
2022-09-30T13:44:14.974Z,3.97
2022-09-30T13:49:45.889Z,2.92
2022-09-30T13:55:17.737Z,3.85
2022-09-30T14:00:46.693Z,3.88
2022-09-30T14:06:26.892Z,3.13
2022-09-30T14:12:07.418Z,3.38
2022-09-30T14:17:43.047Z,3.20
2022-09-30T14:23:05.239Z,2.95
2022-09-30T14:28:38.255Z,1.98
2022-09-30T14:33:59.532Z,4.97
2022-09-30T14:39:26.287Z,2.85
2022-09-30T14:44:47.346Z,2.17
2022-09-30T14:50:17.674Z,4.82
2022-09-30T14:55:38.690Z,2.10
2022-09-30T15:00:59.752Z,2.75
2022-09-30T15:06:34.032Z,5.93
2022-09-30T15:11:55.763Z,2.88
2022-09-30T15:17:21.457Z,3.95
2022-09-30T15:22:42.524Z,2.70
2022-09-30T15:28:04.124Z,2.13
2022-09-30T15:33:29.035Z,2.45
2022-09-30T15:38:52.079Z,2.50
2022-09-30T15:44:37.278Z,2.35
2022-09-30T15:49:58.126Z,3.15
2022-09-30T15:55:41.809Z,2.15
2022-09-30T16:01:24.919Z,2.40
2022-09-30T16:07:08.572Z,4.32
2022-09-30T16:12:34.953Z,1.58
2022-09-30T16:17:57.902Z,4.47
2022-09-30T16:23:38.863Z,3.38
2022-09-30T16:29:08.252Z,2.17
2022-09-30T16:34:36.918Z,6.07
2022-09-30T16:40:10.464Z,1.63
2022-09-30T16:45:32.468Z,3.10
2022-09-30T16:51:02.153Z,3.10
2022-09-30T16:56:26.681Z,4.47
2022-09-30T17:01:48.966Z,2.40
2022-09-30T17:07:14.419Z,2.65
2022-09-30T17:12:35.161Z,3.38
2022-09-30T17:17:56.508Z,3.10
2022-09-30T17:23:17.106Z,1.70
2022-09-30T17:28:37.811Z,2.28
2022-09-30T17:33:58.608Z,2.17
2022-09-30T17:39:19.247Z,6.57
2022-09-30T17:44:39.913Z,6.82
2022-09-30T17:50:02.767Z,20.88
2022-09-30T17:55:23.679Z,21.23
2022-09-30T18:00:46.866Z,12.88
2022-09-30T18:06:07.869Z,11.52
2022-09-30T18:11:31.039Z,12.77
2022-09-30T18:16:52.782Z,13.07
2022-09-30T18:22:13.711Z,16.05
2022-09-30T18:27:34.412Z,20.70
2022-09-30T18:32:56.323Z,16.55
2022-09-30T18:38:16.995Z,31.83
2022-09-30T18:43:37.811Z,43.13
2022-09-30T18:48:58.978Z,46.05
2022-09-30T18:54:20.267Z,45.75
2022-09-30T18:59:41.241Z,24.92
2022-09-30T19:05:01.986Z,22.02
2022-09-30T19:10:24.506Z,19.23
2022-09-30T19:15:46.229Z,15.18
2022-09-30T19:21:11.286Z,16.90
2022-09-30T19:26:34.826Z,15.30
2022-09-30T19:32:00.190Z,14.85
2022-09-30T19:37:27.383Z,15.27
2022-09-30T19:42:49.894Z,13.02
2022-09-30T19:48:11.081Z,17.15
2022-09-30T19:53:40.965Z,15.55
2022-09-30T19:59:03.271Z,16.20
2022-09-30T20:04:25.795Z,16.30
2022-09-30T20:09:49.281Z,12.73
2022-09-30T20:15:46.320Z,15.10
2022-09-30T20:21:18.210Z,17.15
2022-09-30T20:26:40.873Z,17.77
2022-09-30T20:32:02.312Z,18.58
2022-09-30T20:37:23.035Z,19.48
2022-09-30T20:42:44.227Z,35.38
2022-09-30T20:48:05.208Z,38.22
2022-09-30T20:53:25.802Z,32.83
2022-09-30T20:58:46.786Z,21.08
2022-09-30T21:04:07.488Z,21.95
2022-09-30T21:09:29.484Z,17.83
2022-09-30T21:14:50.038Z,22.38
2022-09-30T21:20:10.860Z,19.67
2022-09-30T21:25:32.466Z,23.67
2022-09-30T21:30:53.691Z,19.70
2022-09-30T21:36:14.628Z,19.55
2022-09-30T21:41:35.869Z,15.68
2022-09-30T21:47:05.272Z,15.00
2022-09-30T21:52:28.590Z,15.10
2022-09-30T21:57:53.112Z,12.68
2022-09-30T22:03:16.784Z,11.25
2022-09-30T22:08:41.797Z,10.43
2022-09-30T22:14:02.878Z,11.80
2022-09-30T22:19:23.734Z,12.35
2022-09-30T22:24:44.432Z,9.73
2022-09-30T22:30:07.189Z,7.97
2022-09-30T22:35:46.316Z,6.22
2022-09-30T22:41:06.933Z,12.55
2022-09-30T22:46:29.341Z,10.15
2022-09-30T22:51:54.461Z,9.90
2022-09-30T22:57:15.991Z,9.57
2022-09-30T23:02:37.013Z,9.20
2022-09-30T23:07:57.597Z,9.68
2022-09-30T23:13:22.085Z,14.80
2022-09-30T23:18:46.398Z,11.30
2022-09-30T23:24:07.395Z,15.95
2022-09-30T23:29:28.054Z,12.98
2022-09-30T23:34:48.699Z,12.15
2022-09-30T23:40:10.062Z,11.82
2022-09-30T23:45:31.315Z,13.57
2022-09-30T23:50:52.191Z,12.55
2022-09-30T23:56:16.356Z,14.85
